Time;durP1;ratioP1;P1;durP2;ratioP2;P2;SDS_P1;SDS_P2;PMS_P1;PMS_P2;Temp;Humidity;BMP_temperature;BMP_pressure;BME280_temperature;BME280_humidity;BME280_pressure;Samples;Min_cycle;Max_cycle;Signal;HPM_P1;HPM_P2
2023/06/10 00:00:00;;;;;;;3.58;3.38;;;;;;;;;;4946647;28;20478;-75
2023/06/10 00:02:39;;;;;;;3.20;3.00;;;;;;;;;;4946287;28;20420;-75
2023/06/10 00:05:08;;;;;;;3.80;3.60;;;;;;;;;;4946821;28;20106;-75
2023/06/10 00:07:37;;;;;;;3.75;3.42;;;;;;;;;;4946494;28;20039;-75
2023/06/10 00:10:06;;;;;;;3.30;3.10;;;;;;;;;;4950008;28;20456;-75
2023/06/10 00:12:37;;;;;;;3.42;3.22;;;;;;;;;;4948235;28;20102;-75
2023/06/10 00:15:06;;;;;;;3.50;3.30;;;;;;;;;;4949406;28;20295;-75
2023/06/10 00:17:34;;;;;;;3.72;3.53;;;;;;;;;;4944935;28;20485;-75
2023/06/10 00:20:08;;;;;;;3.90;3.60;;;;;;;;;;4955598;28;20042;-75
2023/06/10 00:22:37;;;;;;;4.32;4.03;;;;;;;;;;4963153;28;20559;-75
2023/06/10 00:25:05;;;;;;;4.18;3.88;;;;;;;;;;4943703;28;20382;-75
2023/06/10 00:27:35;;;;;;;6.15;3.83;;;;;;;;;;4945204;28;20047;-74
2023/06/10 00:30:06;;;;;;;3.50;3.30;;;;;;;;;;4950113;28;20105;-75
2023/06/10 00:32:34;;;;;;;9.13;3.80;;;;;;;;;;4945700;28;20433;-75
2023/06/10 00:35:03;;;;;;;3.45;3.25;;;;;;;;;;4951595;28;20047;-75
2023/06/10 00:37:32;;;;;;;4.10;3.80;;;;;;;;;;4979444;28;20051;-75
2023/06/10 00:39:59;;;;;;;4.25;3.95;;;;;;;;;;4958838;28;20053;-75
2023/06/10 00:42:26;;;;;;;3.78;3.47;;;;;;;;;;4947514;28;20059;-75
2023/06/10 00:44:55;;;;;;;3.80;3.50;;;;;;;;;;4951827;28;20054;-75
2023/06/10 00:47:22;;;;;;;3.78;3.58;;;;;;;;;;4950563;28;20054;-75
2023/06/10 00:49:50;;;;;;;4.20;3.88;;;;;;;;;;4949965;28;20058;-75
2023/06/10 00:52:20;;;;;;;3.40;3.20;;;;;;;;;;4947173;28;20055;-75
2023/06/10 00:54:47;;;;;;;4.18;2.90;;;;;;;;;;4948917;28;20070;-75
2023/06/10 00:57:15;;;;;;;3.35;3.15;;;;;;;;;;4957004;28;20061;-75
2023/06/10 00:59:45;;;;;;;3.75;3.45;;;;;;;;;;4959492;28;20097;-75
2023/06/10 01:02:13;;;;;;;3.92;3.63;;;;;;;;;;4951228;28;20089;-75
2023/06/10 01:04:41;;;;;;;3.00;2.80;;;;;;;;;;4950224;28;20138;-75
2023/06/10 01:07:21;;;;;;;3.08;2.90;;;;;;;;;;4958195;28;20043;-75
2023/06/10 01:09:48;;;;;;;3.88;3.58;;;;;;;;;;4962656;28;20040;-75
2023/06/10 01:12:16;;;;;;;3.67;3.42;;;;;;;;;;4954595;28;20054;-75
2023/06/10 01:14:44;;;;;;;2.88;2.67;;;;;;;;;;4954597;28;20508;-75
2023/06/10 01:17:12;;;;;;;3.00;2.80;;;;;;;;;;4949538;28;20055;-75
2023/06/10 01:19:40;;;;;;;3.53;3.33;;;;;;;;;;4953195;28;20099;-75
2023/06/10 01:22:08;;;;;;;3.30;3.10;;;;;;;;;;4945494;28;20086;-75
2023/06/10 01:24:36;;;;;;;2.83;2.70;;;;;;;;;;4949594;28;20340;-75
2023/06/10 01:27:06;;;;;;;3.17;2.97;;;;;;;;;;4949720;28;20502;-74
2023/06/10 01:29:40;;;;;;;3.10;2.90;;;;;;;;;;4950916;28;20055;-75
2023/06/10 01:32:23;;;;;;;3.40;3.13;;;;;;;;;;4974505;28;20036;-75
2023/06/10 01:34:51;;;;;;;3.05;2.78;;;;;;;;;;4949888;28;20058;-75
2023/06/10 01:37:19;;;;;;;3.30;3.10;;;;;;;;;;4957559;28;20051;-75
2023/06/10 01:39:48;;;;;;;3.30;3.10;;;;;;;;;;4959395;28;20126;-75
2023/06/10 01:42:16;;;;;;;3.30;3.10;;;;;;;;;;4947809;28;20047;-75
2023/06/10 01:44:43;;;;;;;2.70;2.50;;;;;;;;;;4954904;28;20482;-75
2023/06/10 01:47:10;;;;;;;4.00;3.70;;;;;;;;;;4947670;28;20498;-75
2023/06/10 01:49:38;;;;;;;3.10;2.90;;;;;;;;;;4952653;28;20051;-75
2023/06/10 01:52:07;;;;;;;3.10;2.90;;;;;;;;;;4949898;28;20055;-75
2023/06/10 01:54:35;;;;;;;2.63;2.53;;;;;;;;;;4945795;28;20084;-75
2023/06/10 01:57:02;;;;;;;2.40;2.30;;;;;;;;;;4960290;28;20043;-75
2023/06/10 01:59:30;;;;;;;2.85;2.65;;;;;;;;;;4951158;28;20043;-75
2023/06/10 02:01:57;;;;;;;2.42;2.33;;;;;;;;;;4961947;28;20413;-75
2023/06/10 02:04:24;;;;;;;2.92;2.78;;;;;;;;;;4961785;28;20043;-75
2023/06/10 02:06:53;;;;;;;3.60;3.40;;;;;;;;;;4958630;28;20093;-75
2023/06/10 02:09:20;;;;;;;3.08;2.95;;;;;;;;;;4950523;28;20244;-75
2023/06/10 02:11:48;;;;;;;3.45;3.25;;;;;;;;;;4947864;28;20067;-75
2023/06/10 02:14:15;;;;;;;3.92;3.63;;;;;;;;;;4958453;28;20047;-75
2023/06/10 02:16:45;;;;;;;3.58;3.38;;;;;;;;;;4960739;28;20047;-75
2023/06/10 02:19:13;;;;;;;3.40;3.17;;;;;;;;;;4950598;28;20043;-75
2023/06/10 02:21:40;;;;;;;3.15;2.95;;;;;;;;;;4961693;28;20105;-74
2023/06/10 02:24:10;;;;;;;3.00;2.80;;;;;;;;;;4953389;28;20479;-74
2023/06/10 02:26:37;;;;;;;3.30;3.10;;;;;;;;;;4954817;28;20065;-75
2023/06/10 02:29:05;;;;;;;2.92;2.72;;;;;;;;;;4948547;28;20035;-75
2023/06/10 02:31:35;;;;;;;2.30;2.20;;;;;;;;;;4945698;28;20642;-75
2023/06/10 02:34:03;;;;;;;2.22;2.13;;;;;;;;;;4953737;28;20095;-75
2023/06/10 02:36:31;;;;;;;2.30;2.20;;;;;;;;;;4952324;28;20061;-75
2023/06/10 02:38:59;;;;;;;2.80;2.70;;;;;;;;;;4956610;28;20053;-75
2023/06/10 02:41:27;;;;;;;2.63;2.53;;;;;;;;;;4956834;28;20496;-75
2023/06/10 02:43:55;;;;;;;2.47;2.38;;;;;;;;;;4990313;28;20182;-75
2023/06/10 02:46:23;;;;;;;2.42;2.33;;;;;;;;;;4950435;28;20051;-74
2023/06/10 02:48:52;;;;;;;2.50;2.40;;;;;;;;;;4946730;28;20129;-75
2023/06/10 02:51:23;;;;;;;2.50;2.40;;;;;;;;;;4987550;23;20059;-76
2023/06/10 02:53:57;;;;;;;2.75;2.55;;;;;;;;;;4983369;28;20135;-76
2023/06/10 02:56:25;;;;;;;3.00;2.80;;;;;;;;;;4947642;28;20059;-77
2023/06/10 02:58:54;;;;;;;3.30;3.10;;;;;;;;;;4946029;28;20047;-76
2023/06/10 03:01:23;;;;;;;3.00;2.88;;;;;;;;;;4941314;28;20059;-75
2023/06/10 03:04:13;;;;;;;3.00;2.80;;;;;;;;;;4932704;29;20075;-77
2023/06/10 03:06:47;;;;;;;3.35;3.15;;;;;;;;;;4927091;29;20059;-75
2023/06/10 03:09:24;;;;;;;3.20;3.00;;;;;;;;;;4957219;28;20055;-76
2023/06/10 03:11:55;;;;;;;3.13;2.92;;;;;;;;;;4962022;28;20059;-77
2023/06/10 03:14:24;;;;;;;3.35;3.15;;;;;;;;;;4934802;29;20070;-76
2023/06/10 03:16:52;;;;;;;2.65;2.55;;;;;;;;;;4937027;29;20134;-77
2023/06/10 03:19:23;;;;;;;2.97;2.78;;;;;;;;;;4970916;28;20078;-76
2023/06/10 03:22:07;;;;;;;3.05;2.85;;;;;;;;;;4959935;28;20943;-77
2023/06/10 03:24:39;;;;;;;3.28;2.97;;;;;;;;;;4939682;28;20059;-76
2023/06/10 03:27:10;;;;;;;2.63;2.53;;;;;;;;;;4925287;29;21305;-77
2023/06/10 03:29:40;;;;;;;2.40;2.30;;;;;;;;;;4936275;29;20560;-76
2023/06/10 03:32:08;;;;;;;2.60;2.50;;;;;;;;;;4937947;29;20070;-77
2023/06/10 03:34:38;;;;;;;2.53;2.33;;;;;;;;;;4940215;29;20198;-75
2023/06/10 03:37:06;;;;;;;2.72;2.38;;;;;;;;;;4924686;29;20052;-77
2023/06/10 03:39:33;;;;;;;2.60;2.40;;;;;;;;;;4933092;29;20069;-76
2023/06/10 03:42:02;;;;;;;2.35;2.25;;;;;;;;;;4919293;29;20067;-76
2023/06/10 03:44:31;;;;;;;2.10;2.00;;;;;;;;;;4926873;29;20056;-77
2023/06/10 03:46:59;;;;;;;2.42;2.33;;;;;;;;;;4926387;28;20044;-76
2023/06/10 03:49:29;;;;;;;2.30;2.20;;;;;;;;;;4928649;29;20083;-76
2023/06/10 03:52:00;;;;;;;2.60;2.40;;;;;;;;;;4930560;28;20086;-76
2023/06/10 03:54:27;;;;;;;2.45;2.35;;;;;;;;;;4927609;29;20194;-76
2023/06/10 03:56:55;;;;;;;2.05;1.95;;;;;;;;;;4928021;29;20059;-76
2023/06/10 03:59:22;;;;;;;2.50;2.40;;;;;;;;;;4955440;28;20047;-76
2023/06/10 04:01:51;;;;;;;3.00;2.80;;;;;;;;;;4924762;28;20063;-76
2023/06/10 04:04:18;;;;;;;2.83;2.63;;;;;;;;;;4963533;28;20051;-76
2023/06/10 04:06:48;;;;;;;2.47;2.38;;;;;;;;;;4926126;29;20055;-75
2023/06/10 04:09:16;;;;;;;3.22;3.03;;;;;;;;;;4938359;28;20063;-77
2023/06/10 04:11:44;;;;;;;3.13;2.80;;;;;;;;;;4934392;29;20043;-77
2023/06/10 04:14:12;;;;;;;2.55;2.45;;;;;;;;;;4963197;28;20047;-76
2023/06/10 04:16:42;;;;;;;3.20;3.00;;;;;;;;;;4938394;29;20430;-76
2023/06/10 04:19:10;;;;;;;2.72;2.63;;;;;;;;;;4922995;29;20399;-75
2023/06/10 04:21:38;;;;;;;2.05;1.95;;;;;;;;;;4962274;28;20567;-77
2023/06/10 04:24:06;;;;;;;2.35;2.25;;;;;;;;;;4929595;29;20059;-76
2023/06/10 04:26:35;;;;;;;2.67;2.58;;;;;;;;;;4933005;29;20410;-77
2023/06/10 04:29:03;;;;;;;2.95;2.75;;;;;;;;;;4925670;29;20595;-78
2023/06/10 04:31:32;;;;;;;3.25;3.05;;;;;;;;;;4929508;28;20537;-76
2023/06/10 04:34:00;;;;;;;3.10;2.90;;;;;;;;;;4925110;29;20108;-76
2023/06/10 04:36:29;;;;;;;2.67;2.58;;;;;;;;;;4925464;29;20123;-76
2023/06/10 04:38:57;;;;;;;2.40;2.30;;;;;;;;;;4972563;28;20063;-77
2023/06/10 04:41:27;;;;;;;2.33;2.20;;;;;;;;;;4937192;29;20051;-76
2023/06/10 04:43:54;;;;;;;2.67;2.40;;;;;;;;;;4926299;29;20047;-76
2023/06/10 04:46:23;;;;;;;2.30;2.20;;;;;;;;;;4926639;29;20047;-77
2023/06/10 04:48:51;;;;;;;2.40;2.30;;;;;;;;;;4959096;28;20040;-76
2023/06/10 04:51:19;;;;;;;2.10;2.00;;;;;;;;;;4930270;29;20434;-75
2023/06/10 04:53:47;;;;;;;2.13;2.03;;;;;;;;;;4935886;28;20066;-75
2023/06/10 04:56:15;;;;;;;1.83;1.73;;;;;;;;;;4931915;28;20502;-76
2023/06/10 04:58:42;;;;;;;2.67;2.58;;;;;;;;;;4926773;28;20525;-77
2023/06/10 05:01:10;;;;;;;2.80;2.60;;;;;;;;;;4922945;29;20061;-77
2023/06/10 05:03:37;;;;;;;2.45;2.35;;;;;;;;;;4927221;28;20668;-76
2023/06/10 05:06:05;;;;;;;2.63;2.53;;;;;;;;;;4924579;29;20052;-76
2023/06/10 05:08:37;;;;;;;2.97;2.70;;;;;;;;;;4924863;29;20044;-75
2023/06/10 05:11:04;;;;;;;2.50;2.40;;;;;;;;;;4924110;29;20052;-76
2023/06/10 05:13:32;;;;;;;2.60;2.50;;;;;;;;;;4928261;29;20446;-76
2023/06/10 05:15:59;;;;;;;3.05;2.85;;;;;;;;;;4929555;29;20048;-76
2023/06/10 05:18:27;;;;;;;3.13;2.92;;;;;;;;;;4928314;29;20067;-77
2023/06/10 05:20:55;;;;;;;2.30;2.20;;;;;;;;;;4927359;28;20049;-76
2023/06/10 05:23:23;;;;;;;3.03;2.83;;;;;;;;;;4919051;28;20091;-77
2023/06/10 05:25:50;;;;;;;2.05;1.95;;;;;;;;;;4931553;29;20051;-77
2023/06/10 05:28:18;;;;;;;2.67;2.50;;;;;;;;;;4930383;28;20044;-76
2023/06/10 05:30:45;;;;;;;2.22;2.13;;;;;;;;;;4926691;29;20520;-77
2023/06/10 05:33:13;;;;;;;2.65;2.50;;;;;;;;;;4931277;29;20051;-77
2023/06/10 05:35:40;;;;;;;3.33;3.13;;;;;;;;;;4927487;28;20058;-77
2023/06/10 05:38:08;;;;;;;4.20;3.90;;;;;;;;;;4930348;29;20043;-77
2023/06/10 05:40:35;;;;;;;3.58;3.38;;;;;;;;;;4929481;29;20056;-76
2023/06/10 05:43:03;;;;;;;3.85;3.60;;;;;;;;;;4930848;29;20150;-77
2023/06/10 05:45:30;;;;;;;3.65;3.38;;;;;;;;;;4931341;29;20043;-77
2023/06/10 05:47:58;;;;;;;3.90;3.70;;;;;;;;;;4927757;29;20046;-77
2023/06/10 05:50:26;;;;;;;3.80;3.45;;;;;;;;;;4962339;28;20103;-77
2023/06/10 05:52:54;;;;;;;3.70;3.50;;;;;;;;;;4934888;29;20130;-77
2023/06/10 05:55:22;;;;;;;3.30;3.10;;;;;;;;;;4930083;29;20147;-76
2023/06/10 05:57:59;;;;;;;3.25;3.05;;;;;;;;;;4928064;29;20054;-77
2023/06/10 06:00:27;;;;;;;3.28;3.08;;;;;;;;;;4931144;29;20061;-77
2023/06/10 06:02:55;;;;;;;3.13;2.92;;;;;;;;;;4926916;29;20098;-77
2023/06/10 06:05:23;;;;;;;3.13;2.92;;;;;;;;;;4929340;29;20059;-77
2023/06/10 06:07:51;;;;;;;2.80;2.60;;;;;;;;;;4929872;29;20123;-77
2023/06/10 06:10:19;;;;;;;3.13;2.92;;;;;;;;;;4935360;29;20055;-76
2023/06/10 06:12:46;;;;;;;2.50;2.40;;;;;;;;;;4938602;29;20067;-76
2023/06/10 06:15:14;;;;;;;3.58;3.38;;;;;;;;;;4936091;29;20047;-77
2023/06/10 06:17:41;;;;;;;3.78;3.50;;;;;;;;;;4939452;29;20053;-77
2023/06/10 06:20:09;;;;;;;3.65;3.38;;;;;;;;;;4921740;28;20198;-77
2023/06/10 06:22:37;;;;;;;3.60;3.30;;;;;;;;;;4916587;28;20238;-77
2023/06/10 06:25:05;;;;;;;3.47;3.28;;;;;;;;;;4922445;29;20270;-77
2023/06/10 06:27:33;;;;;;;2.83;2.72;;;;;;;;;;4935418;29;20059;-76
2023/06/10 06:30:00;;;;;;;3.10;2.90;;;;;;;;;;4942808;28;20058;-76
2023/06/10 06:32:28;;;;;;;3.03;2.92;;;;;;;;;;4932411;28;20170;-77
2023/06/10 06:34:57;;;;;;;2.80;2.70;;;;;;;;;;4962774;28;20462;-76
2023/06/10 06:37:25;;;;;;;3.20;3.00;;;;;;;;;;4940706;29;20114;-77
2023/06/10 06:40:03;;;;;;;2.95;2.80;;;;;;;;;;4940382;29;20051;-76
2023/06/10 06:42:31;;;;;;;3.40;3.20;;;;;;;;;;4931104;29;20209;-75
2023/06/10 06:45:04;;;;;;;3.65;3.38;;;;;;;;;;4939944;28;20047;-76
2023/06/10 06:47:32;;;;;;;4.25;3.90;;;;;;;;;;4930105;29;20134;-76
2023/06/10 06:50:00;;;;;;;3.60;3.40;;;;;;;;;;4929259;29;20047;-75
2023/06/10 06:52:28;;;;;;;3.65;3.45;;;;;;;;;;4934480;28;20052;-75
2023/06/10 06:54:55;;;;;;;3.85;3.55;;;;;;;;;;4935585;29;20058;-76
2023/06/10 06:57:23;;;;;;;3.53;3.33;;;;;;;;;;4931335;28;20063;-77
2023/06/10 06:59:51;;;;;;;3.92;3.45;;;;;;;;;;4929648;29;20773;-76
2023/06/10 07:02:19;;;;;;;3.70;3.50;;;;;;;;;;4937126;29;20367;-77
2023/06/10 07:04:48;;;;;;;4.22;3.92;;;;;;;;;;4931615;28;20178;-77
2023/06/10 07:07:16;;;;;;;3.88;3.67;;;;;;;;;;4926215;28;20048;-76
2023/06/10 07:09:44;;;;;;;3.72;3.53;;;;;;;;;;4933481;28;20043;-77
2023/06/10 07:12:11;;;;;;;3.58;3.38;;;;;;;;;;4927707;29;20050;-77
2023/06/10 07:14:39;;;;;;;3.75;3.45;;;;;;;;;;4934241;29;20047;-77
2023/06/10 07:17:06;;;;;;;3.10;2.90;;;;;;;;;;4927454;29;20053;-76
2023/06/10 07:19:34;;;;;;;3.53;3.33;;;;;;;;;;4928941;29;20075;-78
2023/06/10 07:22:01;;;;;;;4.00;3.80;;;;;;;;;;4935817;29;20055;-76
2023/06/10 07:24:29;;;;;;;3.97;3.70;;;;;;;;;;4966094;28;20051;-77
2023/06/10 07:26:56;;;;;;;4.20;3.90;;;;;;;;;;4933208;29;20564;-76
2023/06/10 07:29:24;;;;;;;3.45;3.25;;;;;;;;;;4931110;29;20474;-77
2023/06/10 07:31:53;;;;;;;3.53;3.33;;;;;;;;;;4937871;29;20048;-77
2023/06/10 07:34:21;;;;;;;3.30;3.10;;;;;;;;;;4940131;29;20071;-77
2023/06/10 07:36:48;;;;;;;3.75;3.55;;;;;;;;;;4932721;29;20055;-77
2023/06/10 07:39:16;;;;;;;3.10;3.00;;;;;;;;;;4934526;29;20043;-77
2023/06/10 07:41:43;;;;;;;3.03;2.83;;;;;;;;;;4931164;29;20079;-80
2023/06/10 07:44:11;;;;;;;2.88;2.78;;;;;;;;;;4932660;29;20833;-77
2023/06/10 07:46:38;;;;;;;3.47;3.28;;;;;;;;;;4931710;29;20048;-76
2023/06/10 07:49:07;;;;;;;2.90;2.70;;;;;;;;;;4934988;29;20521;-78
2023/06/10 07:51:34;;;;;;;3.63;3.42;;;;;;;;;;4933324;29;20064;-77
2023/06/10 07:54:03;;;;;;;2.88;2.67;;;;;;;;;;4936739;29;20040;-78
2023/06/10 07:56:30;;;;;;;2.90;2.80;;;;;;;;;;4938670;29;20043;-77
2023/06/10 07:58:57;;;;;;;3.30;3.10;;;;;;;;;;4932369;29;20407;-77
2023/06/10 08:01:25;;;;;;;2.95;2.85;;;;;;;;;;4933902;29;20051;-77
2023/06/10 08:03:53;;;;;;;2.90;2.80;;;;;;;;;;4932999;29;20063;-76
2023/06/10 08:06:20;;;;;;;2.80;2.70;;;;;;;;;;4932216;29;20418;-77
2023/06/10 08:08:48;;;;;;;2.90;2.80;;;;;;;;;;4934057;28;20055;-77
2023/06/10 08:11:16;;;;;;;3.33;3.13;;;;;;;;;;4935511;29;20142;-77
2023/06/10 08:13:43;;;;;;;3.17;2.97;;;;;;;;;;4947942;29;20059;-77
2023/06/10 08:16:11;;;;;;;2.92;2.72;;;;;;;;;;4942500;28;20051;-77
2023/06/10 08:18:38;;;;;;;2.60;2.50;;;;;;;;;;4942037;29;20367;-77
2023/06/10 08:21:06;;;;;;;2.80;2.70;;;;;;;;;;4932877;28;20481;-76
2023/06/10 08:23:33;;;;;;;2.67;2.58;;;;;;;;;;4972582;28;20044;-77
2023/06/10 08:26:01;;;;;;;2.50;2.40;;;;;;;;;;4939354;29;20056;-76
2023/06/10 08:28:29;;;;;;;2.55;2.45;;;;;;;;;;4936035;29;20135;-78
2023/06/10 08:30:56;;;;;;;3.03;2.90;;;;;;;;;;4935566;28;20079;-77
2023/06/10 08:33:24;;;;;;;2.50;2.40;;;;;;;;;;4938468;29;20094;-76
2023/06/10 08:35:51;;;;;;;2.53;2.42;;;;;;;;;;4932598;29;20130;-78
2023/06/10 08:38:19;;;;;;;2.60;2.50;;;;;;;;;;4935088;29;20090;-78
2023/06/10 08:40:46;;;;;;;2.85;2.65;;;;;;;;;;4931965;29;20059;-78
2023/06/10 08:43:22;;;;;;;3.08;2.88;;;;;;;;;;4930581;28;20810;-77
2023/06/10 08:45:51;;;;;;;2.60;2.50;;;;;;;;;;4959549;28;20671;-77
2023/06/10 08:48:19;;;;;;;2.55;2.35;;;;;;;;;;4935045;29;20156;-76
2023/06/10 08:50:48;;;;;;;2.72;2.63;;;;;;;;;;4947194;23;20079;-88
2023/06/10 08:53:19;;;;;;;2.67;2.58;;;;;;;;;;4973313;28;20151;-87
2023/06/10 08:55:51;;;;;;;2.28;2.17;;;;;;;;;;4971154;28;20046;-87
2023/06/10 08:58:19;;;;;;;2.50;2.40;;;;;;;;;;4974772;28;20047;-87
2023/06/10 09:00:46;;;;;;;2.85;2.75;;;;;;;;;;4973720;28;20125;-88
2023/06/10 09:03:14;;;;;;;2.80;2.60;;;;;;;;;;4974590;28;20047;-87
2023/06/10 09:05:42;;;;;;;3.00;2.90;;;;;;;;;;4973109;28;20047;-86
2023/06/10 09:08:10;;;;;;;2.78;2.67;;;;;;;;;;4975092;28;20105;-86
2023/06/10 09:10:37;;;;;;;2.65;2.55;;;;;;;;;;4973893;28;20069;-86
2023/06/10 09:13:04;;;;;;;2.80;2.70;;;;;;;;;;4975348;28;20051;-87
2023/06/10 09:15:32;;;;;;;2.70;2.60;;;;;;;;;;4971578;28;20046;-87
2023/06/10 09:18:00;;;;;;;2.58;2.47;;;;;;;;;;4963197;28;20047;-89
2023/06/10 09:20:27;;;;;;;2.50;2.40;;;;;;;;;;4972651;28;20074;-88
2023/06/10 09:22:55;;;;;;;2.50;2.40;;;;;;;;;;4974918;28;20043;-88
2023/06/10 09:25:35;;;;;;;2.50;2.40;;;;;;;;;;4974634;28;20042;-88
2023/06/10 09:28:02;;;;;;;2.40;2.30;;;;;;;;;;4966788;28;20109;-86
2023/06/10 09:30:31;;;;;;;2.65;2.55;;;;;;;;;;4973786;28;20253;-88
2023/06/10 09:33:00;;;;;;;2.42;2.22;;;;;;;;;;4974895;28;20082;-89
2023/06/10 09:35:31;;;;;;;2.45;2.35;;;;;;;;;;4973879;28;20122;-89
2023/06/10 09:37:59;;;;;;;3.28;3.10;;;;;;;;;;4975137;28;20491;-89
2023/06/10 09:40:27;;;;;;;2.40;2.30;;;;;;;;;;4974202;28;20051;-87
2023/06/10 09:42:59;;;;;;;2.78;2.58;;;;;;;;;;4973582;28;20070;-88
2023/06/10 09:45:33;;;;;;;2.53;2.40;;;;;;;;;;4974785;28;20047;-91
2023/06/10 09:48:01;;;;;;;2.28;2.17;;;;;;;;;;4974423;28;20508;-88
2023/06/10 09:50:34;;;;;;;2.35;2.25;;;;;;;;;;4967415;28;20054;-89
2023/06/10 09:53:02;;;;;;;2.67;2.50;;;;;;;;;;4973106;28;20046;-87
2023/06/10 09:55:33;;;;;;;2.40;2.30;;;;;;;;;;4974072;28;20039;-88
2023/06/10 09:58:00;;;;;;;2.20;2.10;;;;;;;;;;4974609;28;20050;-90
2023/06/10 10:00:28;;;;;;;2.42;2.33;;;;;;;;;;4974102;28;20134;-88
2023/06/10 10:02:55;;;;;;;2.33;2.22;;;;;;;;;;4981459;28;20141;-89
2023/06/10 10:05:23;;;;;;;2.75;2.65;;;;;;;;;;4973852;28;20106;-91
2023/06/10 10:07:52;;;;;;;2.80;2.63;;;;;;;;;;4987474;28;20069;-91
2023/06/10 10:10:21;;;;;;;2.58;2.42;;;;;;;;;;4983149;28;20524;-89
2023/06/10 10:12:51;;;;;;;2.22;2.13;;;;;;;;;;4974580;28;20039;-90
2023/06/10 10:15:23;;;;;;;2.28;2.17;;;;;;;;;;4983322;28;20062;-91
2023/06/10 10:17:56;;;;;;;2.53;2.42;;;;;;;;;;4997346;28;20073;-90
2023/06/10 10:20:29;;;;;;;2.70;2.55;;;;;;;;;;4977863;28;20078;-88
2023/06/10 10:22:57;;;;;;;2.13;2.03;;;;;;;;;;4978274;28;20035;-87
2023/06/10 10:25:29;;;;;;;2.20;2.10;;;;;;;;;;4979528;28;21042;-90
2023/06/10 10:27:59;;;;;;;1.70;1.70;;;;;;;;;;4985588;28;20058;-90
2023/06/10 10:30:27;;;;;;;2.30;2.20;;;;;;;;;;4982652;28;20054;-90
2023/06/10 10:32:59;;;;;;;2.58;2.38;;;;;;;;;;4966721;28;20043;-89
2023/06/10 10:38:26;;;;;;;2.20;2.10;;;;;;;;;;4969931;28;20047;-91
2023/06/10 10:40:55;;;;;;;2.03;1.92;;;;;;;;;;4961938;28;20110;-88
2023/06/10 10:43:23;;;;;;;2.05;2.00;;;;;;;;;;4957530;28;20437;-88
2023/06/10 10:46:01;;;;;;;2.20;2.10;;;;;;;;;;4963192;28;20055;-88
2023/06/10 10:48:38;;;;;;;2.10;2.00;;;;;;;;;;4943435;28;20370;-89
2023/06/10 10:51:05;;;;;;;2.17;2.08;;;;;;;;;;4963594;28;20075;-89
2023/06/10 10:53:35;;;;;;;2.30;2.20;;;;;;;;;;4962380;28;20694;-88
2023/06/10 10:56:07;;;;;;;1.90;1.80;;;;;;;;;;4960673;28;20569;-89
2023/06/10 10:58:36;;;;;;;1.80;1.80;;;;;;;;;;4958503;28;20058;-89
2023/06/10 11:01:14;;;;;;;1.92;1.83;;;;;;;;;;4966577;28;20042;-91
2023/06/10 11:03:45;;;;;;;2.35;2.25;;;;;;;;;;4978143;28;20098;-90
2023/06/10 11:06:19;;;;;;;1.88;1.83;;;;;;;;;;4974105;28;20071;-90
2023/06/10 11:08:53;;;;;;;2.38;2.28;;;;;;;;;;4974762;28;20105;-91
2023/06/10 11:11:28;;;;;;;1.98;1.95;;;;;;;;;;4966132;28;20058;-89
2023/06/10 11:14:28;;;;;;;2.50;2.40;;;;;;;;;;4963521;28;20062;-89
2023/06/10 11:16:59;;;;;;;2.05;2.00;;;;;;;;;;4944347;28;20053;-89
2023/06/10 11:19:38;;;;;;;2.10;2.00;;;;;;;;;;4952942;28;20414;-89
2023/06/10 11:22:07;;;;;;;1.77;1.77;;;;;;;;;;4959349;28;20049;-90
2023/06/10 11:24:34;;;;;;;1.73;1.73;;;;;;;;;;4956001;28;20066;-89
2023/06/10 11:27:25;;;;;;;2.15;2.05;;;;;;;;;;4952343;28;20480;-91
2023/06/10 11:30:03;;;;;;;1.92;1.85;;;;;;;;;;4951921;28;20087;-90
2023/06/10 11:32:34;;;;;;;2.17;2.08;;;;;;;;;;4957733;28;20133;-90
2023/06/10 11:35:05;;;;;;;2.03;1.92;;;;;;;;;;4951019;28;20054;-91
2023/06/10 11:37:35;;;;;;;1.45;1.45;;;;;;;;;;4948341;28;20051;-87
2023/06/10 11:40:07;;;;;;;1.70;1.60;;;;;;;;;;4949365;28;20051;-91
2023/06/10 11:42:38;;;;;;;1.40;1.40;;;;;;;;;;4943354;28;20341;-90
2023/06/10 11:45:08;;;;;;;1.27;1.27;;;;;;;;;;4947187;28;20059;-90
2023/06/10 11:47:56;;;;;;;1.40;1.40;;;;;;;;;;4946838;28;20106;-91
2023/06/10 11:50:30;;;;;;;1.40;1.40;;;;;;;;;;4945185;28;20048;-91
2023/06/10 11:53:05;;;;;;;1.30;1.30;;;;;;;;;;4947853;28;20039;-89
2023/06/10 11:55:47;;;;;;;1.30;1.30;;;;;;;;;;4945021;28;20039;-90
2023/06/10 11:58:25;;;;;;;2.05;1.67;;;;;;;;;;4948873;28;20043;-93
2023/06/10 12:01:08;;;;;;;1.80;1.70;;;;;;;;;;4944316;28;20055;-92
2023/06/10 12:03:46;;;;;;;1.55;1.55;;;;;;;;;;4945887;28;20159;-90
2023/06/10 12:11:36;;;;;;;1.95;1.85;;;;;;;;;;4947313;28;20646;-89
2023/06/10 12:14:29;;;;;;;2.13;1.90;;;;;;;;;;4946348;28;20162;-89
2023/06/10 12:17:07;;;;;;;1.95;1.85;;;;;;;;;;4946208;28;20043;-90
2023/06/10 12:24:08;;;;;;;1.45;1.45;;;;;;;;;;4955698;28;20039;-92
2023/06/10 12:27:00;;;;;;;1.90;1.75;;;;;;;;;;4947165;28;20130;-91
2023/06/10 12:29:55;;;;;;;1.92;1.83;;;;;;;;;;4955849;28;20038;-91
2023/06/10 12:35:54;;;;;;;1.65;1.65;;;;;;;;;;4947976;28;20075;-89
2023/06/10 12:39:38;;;;;;;2.00;1.90;;;;;;;;;;4938088;28;20079;-92
2023/06/10 12:42:15;;;;;;;1.80;1.70;;;;;;;;;;4950455;28;20070;-92
2023/06/10 12:45:00;;;;;;;1.90;1.80;;;;;;;;;;4952978;28;20047;-91
2023/06/10 12:51:15;;;;;;;2.55;2.20;;;;;;;;;;4940668;28;20362;-91
2023/06/10 12:54:19;;;;;;;2.20;2.10;;;;;;;;;;4947765;28;20102;-89
2023/06/10 12:57:44;;;;;;;;;;;;;;;;;;;;;
2023/06/10 13:04:54;;;;;;;2.20;2.10;;;;;;;;;;4891369;29;20107;-92
2023/06/10 13:08:20;;;;;;;1.90;1.80;;;;;;;;;;4888189;29;20053;-89
2023/06/10 13:11:07;;;;;;;2.40;2.25;;;;;;;;;;4875120;29;20044;-89
2023/06/10 13:21:40;;;;;;;1.70;1.70;;;;;;;;;;4867439;29;20045;-93
2023/06/10 13:24:27;;;;;;;1.85;1.75;;;;;;;;;;4900134;29;20074;-93
2023/06/10 13:27:38;;;;;;;2.30;2.10;;;;;;;;;;4917721;29;20044;-92
2023/06/10 13:30:29;;;;;;;2.20;2.10;;;;;;;;;;4918221;29;20053;-90
2023/06/10 13:32:58;;;;;;;2.40;2.30;;;;;;;;;;4927582;29;20081;-92
2023/06/10 13:35:26;;;;;;;2.40;2.30;;;;;;;;;;4984539;28;20039;-93
2023/06/10 13:38:25;;;;;;;2.70;2.60;;;;;;;;;;4966892;28;20042;-92
2023/06/10 13:41:14;;;;;;;2.47;2.38;;;;;;;;;;4980960;28;20043;-90
2023/06/10 13:48:14;;;;;;;4.05;3.38;;;;;;;;;;4961986;28;20116;-90
2023/06/10 13:51:52;;;;;;;2.63;2.53;;;;;;;;;;4941542;28;20050;-92
2023/06/10 13:54:30;;;;;;;2.28;2.17;;;;;;;;;;4962537;28;20063;-90
2023/06/10 13:57:10;;;;;;;2.30;2.20;;;;;;;;;;4954607;28;20467;-92
2023/06/10 13:59:40;;;;;;;2.20;2.10;;;;;;;;;;4963371;28;20471;-91
2023/06/10 14:02:12;;;;;;;2.20;2.10;;;;;;;;;;4954175;28;20109;-90
2023/06/10 14:04:40;;;;;;;2.03;1.83;;;;;;;;;;4969898;28;20043;-91
2023/06/10 14:07:15;;;;;;;2.10;2.00;;;;;;;;;;4960440;28;20112;-90
2023/06/10 14:09:43;;;;;;;5.10;2.40;;;;;;;;;;4965382;28;20046;-90
2023/06/10 14:12:22;;;;;;;2.47;2.28;;;;;;;;;;4958949;28;20571;-89
2023/06/10 14:14:49;;;;;;;2.42;2.33;;;;;;;;;;4958994;28;20042;-90
2023/06/10 14:17:18;;;;;;;2.13;2.03;;;;;;;;;;4951425;28;20047;-90
2023/06/10 14:19:47;;;;;;;2.15;1.90;;;;;;;;;;4953552;28;20069;-91
2023/06/10 14:22:17;;;;;;;;;;;;;;;;;;4951680;28;20043;-91
2023/06/10 14:25:05;;;;;;;2.30;2.20;;;;;;;;;;4947881;28;19932;-90
2023/06/10 14:27:42;;;;;;;2.30;2.20;;;;;;;;;;4958193;28;20067;-90
2023/06/10 14:30:28;;;;;;;2.60;2.40;;;;;;;;;;4954504;28;20041;-90
2023/06/10 14:33:02;;;;;;;2.20;2.10;;;;;;;;;;4956974;28;20048;-90
2023/06/10 14:35:30;;;;;;;2.30;2.10;;;;;;;;;;4959317;28;20043;-91
2023/06/10 14:37:57;;;;;;;1.92;1.80;;;;;;;;;;4957947;28;20047;-91
2023/06/10 14:40:28;;;;;;;2.70;2.50;;;;;;;;;;4969514;28;20086;-89
2023/06/10 14:43:00;;;;;;;3.50;3.20;;;;;;;;;;4958897;28;20508;-89
2023/06/10 14:45:27;;;;;;;3.83;3.20;;;;;;;;;;4953769;28;20043;-88
2023/06/10 14:47:54;;;;;;;5.13;2.10;;;;;;;;;;4947324;28;20035;-87
2023/06/10 14:50:22;;;;;;;2.00;1.80;;;;;;;;;;4944075;28;20462;-89
2023/06/10 14:52:50;;;;;;;3.00;2.72;;;;;;;;;;4947075;28;20528;-85
2023/06/10 14:55:17;;;;;;;3.58;2.58;;;;;;;;;;4951722;28;20456;-86
2023/06/10 14:57:44;;;;;;;13.48;3.70;;;;;;;;;;4955986;28;20130;-87
2023/06/10 15:00:15;;;;;;;2.95;2.75;;;;;;;;;;4948066;28;20058;-89
2023/06/10 15:02:42;;;;;;;3.75;3.13;;;;;;;;;;4949046;28;20517;-88
2023/06/10 15:05:10;;;;;;;2.88;2.67;;;;;;;;;;4946652;28;20110;-87
2023/06/10 15:07:37;;;;;;;2.88;2.67;;;;;;;;;;4948569;28;20059;-89
2023/06/10 15:10:05;;;;;;;2.80;2.60;;;;;;;;;;4948947;28;20111;-89
2023/06/10 15:12:32;;;;;;;7.65;2.80;;;;;;;;;;4947245;28;20067;-88
2023/06/10 15:15:00;;;;;;;2.70;2.50;;;;;;;;;;4948956;28;20367;-87
2023/06/10 15:17:28;;;;;;;3.50;3.30;;;;;;;;;;4944856;28;21004;-89
2023/06/10 15:19:55;;;;;;;3.00;2.90;;;;;;;;;;4945064;28;20047;-85
2023/06/10 15:22:24;;;;;;;3.70;3.40;;;;;;;;;;4947534;28;20055;-85
2023/06/10 15:24:52;;;;;;;3.70;3.50;;;;;;;;;;4950570;28;20552;-86
2023/06/10 15:27:19;;;;;;;3.50;3.20;;;;;;;;;;4954911;28;20538;-84
2023/06/10 15:29:46;;;;;;;4.05;3.60;;;;;;;;;;4947666;28;20098;-90
2023/06/10 15:32:14;;;;;;;3.88;3.58;;;;;;;;;;4951519;28;20043;-89
2023/06/10 15:34:47;;;;;;;;;;;;;;;;;;4949491;28;20118;-85
2023/06/10 15:37:15;;;;;;;4.25;3.95;;;;;;;;;;4951855;28;20045;-88
2023/06/10 15:39:42;;;;;;;3.88;3.58;;;;;;;;;;4939205;28;20078;-86
2023/06/10 15:42:10;;;;;;;5.25;4.85;;;;;;;;;;4950163;28;20488;-88
2023/06/10 15:44:37;;;;;;;5.05;4.65;;;;;;;;;;4944253;28;20106;-88